Cason, TX (75636)

9:57 PM CST on February 13, 2016 (GMT -0600)
Jenkins | | Change Station
CLOSE
Current Station
Personal Weather Station
Location: Daingerfield, TX
Elevation: 344 ft
Nearby Weather Stations
Active Advisory: Flood Warning

Elev 344 ft 32.96 °N, 94.74 °W | Updated 6 minutes ago

Clear
Clear
49.6 °F
Feels Like 48 °F
N
4.7
Wind Variable Wind from ESE

Today
High -- | Low -- °F
--% Chance of Precip.
Yesterday
High -- | Low -- °F
Precip. -- in
Pressure 30.22 in
Visibility 10.0 miles
Clouds Clear
Windchill 48 °F
Dew Point 37 °F
Humidity 62%
Rainfall 0.00 in
Snow Depth Not available.
7:04 AM 6:01 PM
Waxing Crescent, 37% visible
METAR KOSA 140335Z AUTO 11007KT 10SM CLR 10/01 A3022 RMK AO1 T01010007
Pressure 30.22 in
Visibility 10.0 miles
Clouds Clear
Windchill 48 °F
Dew Point 37 °F
Humidity 62%
Rainfall 0.00 in
Snow Depth Not available.
7:04 AM 6:01 PM
Waxing Crescent, 37% visible
METAR KOSA 140335Z AUTO 11007KT 10SM CLR 10/01 A3022 RMK AO1 T01010007

10-Day Weather Forecast

Almanac

Astronomy

Feb. 13, 2016 Rise Set
Actual Time
Civil Twilight
Nautical Twilight
Astronomical Twilight
Moon
Length of Visible Light
Length of Day
Tomorrow will be .
, % of the Moon is Illuminated

Today's Extremes

State Highs State Lows

Community

WunderPhotos

Upload Photos

1,892,738 photos uploaded!

WunderBlog® & News

Nearby

Air Quality

  Air Quality AQ Index Pollutant
Not available.

Snow Depth

Station Depth Elevation

Earthquake Activity

City Distance Mag. Time & Date
Minimum magnitude displayed is 2.5.

Coastal Water Temperatures

Place Temperature

Stations

Nearby Weather Stations

Station Location Temp. Windchill Dew Point Humidity Wind Precip. Elev Updated Type
                   

Watches & Warnings

Flood Warning
Issued: 8:48 AM CST Feb. 13, 2016 – National Weather Service

The Flood Warning continues for
the Sulphur river near Naples.
* Until further notice... or until the warning is cancelled.
* At 6:30 am Saturday the stage was 29.0 feet.
* Minor flooding is occurring and minor flooding is forecast.
* Flood stage is 22.0 feet.
* Forecast... the river will continue to fall to a stage of 28.6 feet
by tomorrow morning.
* Impact... at 30.0 feet... considerable lowland flooding and flooded
boat ramps.


Lat... Lon 3331 9466 3328 9456 3330 9447 3324 9462 3326 9466


25